createdAt,value
2022-11-01T00:01:52.644Z,99.90
2022-11-01T00:04:20.474Z,99.90
2022-11-01T00:06:48.804Z,99.90
2022-11-01T00:09:17.428Z,99.90
2022-11-01T00:11:45.025Z,99.90
2022-11-01T00:14:17.412Z,99.90
2022-11-01T00:16:45.107Z,99.90
2022-11-01T00:19:14.294Z,99.90
2022-11-01T00:21:41.657Z,99.90
2022-11-01T00:24:09.198Z,99.90
2022-11-01T00:26:36.571Z,99.90
2022-11-01T00:29:04.008Z,99.90
2022-11-01T00:31:31.564Z,99.90
2022-11-01T00:34:01.253Z,99.90
2022-11-01T00:36:28.645Z,99.90
2022-11-01T00:38:55.955Z,99.90
2022-11-01T00:41:23.293Z,99.90
2022-11-01T00:43:50.950Z,99.90
2022-11-01T00:46:19.074Z,99.90
2022-11-01T00:48:46.681Z,99.90
2022-11-01T00:51:14.118Z,99.90
2022-11-01T00:53:41.663Z,99.90
2022-11-01T00:56:09.522Z,99.90
2022-11-01T00:58:37.005Z,99.90
2022-11-01T01:01:04.479Z,99.90
2022-11-01T01:03:31.907Z,99.90
2022-11-01T01:05:59.626Z,99.90
2022-11-01T01:08:27.491Z,99.90
2022-11-01T01:10:55.081Z,99.90
2022-11-01T01:13:23.254Z,99.90
2022-11-01T01:15:50.534Z,99.90
2022-11-01T01:18:17.878Z,99.90
2022-11-01T01:20:45.648Z,99.90
2022-11-01T01:23:13.485Z,99.90
2022-11-01T01:25:42.118Z,99.90
2022-11-01T01:28:10.451Z,99.90
2022-11-01T01:30:41.566Z,99.90
2022-11-01T01:33:09.781Z,99.90
2022-11-01T01:35:38.593Z,99.90
2022-11-01T01:38:06.942Z,99.90
2022-11-01T01:40:35.281Z,99.90
2022-11-01T01:43:02.677Z,99.90
2022-11-01T01:45:31.848Z,99.90
2022-11-01T01:48:08.178Z,99.90
2022-11-01T01:50:50.860Z,99.90
2022-11-01T01:53:21.377Z,99.90
2022-11-01T01:56:00.107Z,99.90
2022-11-01T01:58:38.893Z,99.90
2022-11-01T02:01:06.507Z,99.90
2022-11-01T02:03:35.585Z,99.90
2022-11-01T02:06:06.737Z,99.90
2022-11-01T02:08:35.829Z,99.90
2022-11-01T02:11:05.949Z,99.90
2022-11-01T02:13:33.691Z,99.90
2022-11-01T02:16:26.306Z,99.90
2022-11-01T02:19:31.773Z,99.90
2022-11-01T02:22:14.759Z,99.90
2022-11-01T02:25:03.440Z,99.90
2022-11-01T02:27:40.416Z,99.90
2022-11-01T02:30:20.023Z,99.90
2022-11-01T02:33:25.873Z,99.90
2022-11-01T02:36:07.757Z,99.90
2022-11-01T02:38:43.773Z,99.90
2022-11-01T02:41:27.796Z,99.90
2022-11-01T02:44:00.224Z,99.90
2022-11-01T02:46:50.811Z,99.90
2022-11-01T02:49:21.302Z,99.90
2022-11-01T02:51:50.194Z,99.90
2022-11-01T02:54:26.947Z,99.90
2022-11-01T02:56:55.248Z,99.90
2022-11-01T02:59:28.100Z,99.90
2022-11-01T03:02:19.556Z,99.90
2022-11-01T03:04:47.774Z,99.90
2022-11-01T03:07:16.936Z,99.90
2022-11-01T03:09:45.428Z,99.90
2022-11-01T03:12:25.456Z,99.90
2022-11-01T03:14:59.776Z,99.90
2022-11-01T03:18:02.300Z,99.90
2022-11-01T03:20:48.952Z,99.90
2022-11-01T03:23:23.299Z,99.90
2022-11-01T03:25:55.467Z,99.90
2022-11-01T03:28:33.154Z,99.90
2022-11-01T03:31:07.430Z,99.90
2022-11-01T03:33:42.415Z,99.90
2022-11-01T03:36:14.891Z,99.90
2022-11-01T03:38:48.988Z,99.90
2022-11-01T03:41:18.265Z,99.90
2022-11-01T03:43:47.302Z,99.90
2022-11-01T03:46:15.739Z,99.90
2022-11-01T03:48:43.154Z,99.90
2022-11-01T03:51:10.416Z,99.90
2022-11-01T03:53:37.923Z,99.90
2022-11-01T03:56:05.337Z,99.90
2022-11-01T03:58:42.082Z,99.90
2022-11-01T04:01:10.247Z,99.90
2022-11-01T04:03:38.094Z,99.90
2022-11-01T04:06:06.739Z,99.90
2022-11-01T04:08:34.927Z,99.90
2022-11-01T04:11:02.672Z,99.90
2022-11-01T04:13:29.857Z,99.90
2022-11-01T04:16:17.028Z,99.90
2022-11-01T04:19:02.976Z,99.90
2022-11-01T04:21:31.511Z,99.90
2022-11-01T04:23:59.140Z,99.90
2022-11-01T04:26:26.671Z,99.90
2022-11-01T04:28:57.224Z,99.90
2022-11-01T04:31:31.219Z,99.90
2022-11-01T04:33:59.867Z,99.90
2022-11-01T04:36:27.320Z,99.90
2022-11-01T04:38:56.148Z,99.90
2022-11-01T04:41:25.215Z,99.90
2022-11-01T04:43:56.001Z,99.90
2022-11-01T04:46:23.210Z,99.90
2022-11-01T04:48:50.441Z,99.90
2022-11-01T04:51:18.095Z,99.90
2022-11-01T04:53:45.288Z,99.90
2022-11-01T04:56:13.491Z,99.90
2022-11-01T04:58:44.941Z,99.90
2022-11-01T05:01:14.711Z,99.90
2022-11-01T05:03:43.210Z,99.90
2022-11-01T05:06:10.568Z,99.90
2022-11-01T05:08:37.899Z,99.90
2022-11-01T05:11:05.306Z,99.90
2022-11-01T05:13:32.577Z,99.90
2022-11-01T05:16:18.840Z,99.90
2022-11-01T05:18:47.105Z,99.90
2022-11-01T05:21:14.261Z,99.90
2022-11-01T05:23:41.400Z,99.90
2022-11-01T05:26:08.583Z,99.90
2022-11-01T05:28:35.741Z,99.90
2022-11-01T05:31:02.899Z,99.90
2022-11-01T05:33:30.035Z,99.90
2022-11-01T05:36:00.660Z,99.90
2022-11-01T05:38:27.820Z,99.90
2022-11-01T05:40:55.196Z,99.90
2022-11-01T05:43:22.423Z,99.90
2022-11-01T05:45:49.574Z,99.90
2022-11-01T05:48:16.730Z,99.90
2022-11-01T05:50:44.648Z,99.90
2022-11-01T05:53:11.847Z,99.90
2022-11-01T05:55:39.335Z,99.90
2022-11-01T05:58:06.976Z,99.90
2022-11-01T06:00:34.730Z,99.90
2022-11-01T06:03:02.745Z,99.90
2022-11-01T06:05:30.730Z,99.90
2022-11-01T06:08:00.366Z,99.90
2022-11-01T06:10:28.129Z,99.90
2022-11-01T06:12:55.381Z,99.90
2022-11-01T06:15:23.434Z,99.90
2022-11-01T06:18:00.484Z,99.90
2022-11-01T06:20:29.622Z,99.90
2022-11-01T06:22:58.130Z,99.90
2022-11-01T06:25:27.174Z,99.90
2022-11-01T06:27:54.707Z,99.90
2022-11-01T06:30:22.042Z,99.90
2022-11-01T06:32:49.216Z,99.90
2022-11-01T06:35:16.723Z,99.90
2022-11-01T06:37:43.909Z,99.90
2022-11-01T06:40:12.913Z,99.90
2022-11-01T06:42:46.589Z,99.90
2022-11-01T06:45:14.496Z,99.90
2022-11-01T06:47:46.367Z,99.90
2022-11-01T06:50:13.741Z,99.90
2022-11-01T06:52:40.885Z,99.90
2022-11-01T06:55:08.398Z,99.90
2022-11-01T06:57:35.616Z,99.90
2022-11-01T07:00:03.711Z,99.90
2022-11-01T07:02:31.812Z,99.90
2022-11-01T07:04:59.284Z,99.90
2022-11-01T07:07:26.585Z,99.90
2022-11-01T07:09:53.771Z,99.90
2022-11-01T07:12:21.273Z,99.90
2022-11-01T07:14:48.415Z,99.90
2022-11-01T07:17:15.555Z,99.90
2022-11-01T07:19:42.791Z,99.90
2022-11-01T07:22:09.967Z,99.90
2022-11-01T07:24:37.541Z,99.90
2022-11-01T07:27:04.696Z,99.90
2022-11-01T07:29:31.908Z,99.90
2022-11-01T07:32:00.276Z,99.90
2022-11-01T07:34:27.416Z,99.90
2022-11-01T07:36:54.775Z,99.90
2022-11-01T07:39:22.102Z,99.90
2022-11-01T07:41:51.177Z,99.90
2022-11-01T07:44:18.339Z,99.90
2022-11-01T07:46:45.610Z,99.90
2022-11-01T07:49:12.988Z,99.90
2022-11-01T07:51:40.560Z,99.90
2022-11-01T07:54:07.724Z,99.90
2022-11-01T07:56:35.132Z,99.90
2022-11-01T07:59:02.661Z,99.90
2022-11-01T08:01:29.948Z,99.90
2022-11-01T08:03:57.189Z,99.90
2022-11-01T08:06:24.585Z,99.90
2022-11-01T08:08:51.726Z,99.90
2022-11-01T08:11:18.879Z,99.90
2022-11-01T08:13:46.877Z,99.90
2022-11-01T08:16:17.963Z,99.90
2022-11-01T08:18:45.201Z,99.90
2022-11-01T08:21:18.427Z,99.90
2022-11-01T08:23:46.257Z,99.90
2022-11-01T08:26:14.121Z,99.90
2022-11-01T08:28:41.654Z,99.90
2022-11-01T08:31:10.156Z,99.90
2022-11-01T08:33:37.303Z,99.90
2022-11-01T08:36:04.812Z,99.90
2022-11-01T08:38:32.273Z,99.90
2022-11-01T08:40:59.839Z,99.90
2022-11-01T08:43:27.030Z,99.90
2022-11-01T08:45:54.157Z,99.90
2022-11-01T08:48:21.286Z,99.90
2022-11-01T08:50:49.434Z,99.90
2022-11-01T08:53:16.653Z,99.90
2022-11-01T08:55:43.924Z,99.90
2022-11-01T08:58:11.379Z,99.90
2022-11-01T09:00:38.546Z,99.90
2022-11-01T09:03:05.727Z,99.90
2022-11-01T09:05:32.949Z,99.90
2022-11-01T09:08:01.540Z,99.90
2022-11-01T09:10:30.684Z,99.90
2022-11-01T09:13:02.078Z,99.90
2022-11-01T09:15:30.274Z,99.90
2022-11-01T09:17:57.531Z,99.90
2022-11-01T09:20:24.726Z,99.90
2022-11-01T09:22:52.483Z,99.90
2022-11-01T09:25:19.932Z,99.90
2022-11-01T09:27:47.097Z,99.90
2022-11-01T09:30:14.477Z,99.90
2022-11-01T09:32:41.660Z,99.90
2022-11-01T09:35:09.285Z,99.90
2022-11-01T09:37:36.540Z,99.90
2022-11-01T09:40:04.358Z,99.90
2022-11-01T09:42:40.104Z,99.90
2022-11-01T09:45:23.151Z,99.90
2022-11-01T09:47:55.928Z,99.90
2022-11-01T09:50:49.555Z,99.90
2022-11-01T09:53:24.128Z,99.90
2022-11-01T09:56:09.938Z,99.90
2022-11-01T09:59:03.727Z,99.90
2022-11-01T10:01:55.151Z,99.90
2022-11-01T10:05:03.110Z,99.90
2022-11-01T10:07:42.840Z,99.90
2022-11-01T10:10:18.753Z,99.90
2022-11-01T10:12:59.245Z,99.90
2022-11-01T10:15:35.971Z,99.90
2022-11-01T10:18:17.182Z,99.90
2022-11-01T10:20:44.829Z,99.90
2022-11-01T10:23:17.440Z,99.80
2022-11-01T10:25:52.779Z,97.30
2022-11-01T10:28:25.979Z,95.00
2022-11-01T10:31:02.394Z,94.00
2022-11-01T10:33:47.072Z,91.60
2022-11-01T10:36:26.847Z,87.90
2022-11-01T10:42:19.029Z,82.90
2022-11-01T10:44:55.006Z,78.00
2022-11-01T10:47:24.120Z,73.70
2022-11-01T10:50:12.133Z,70.90
2022-11-01T10:52:52.865Z,67.50
2022-11-01T10:55:30.175Z,68.40
2022-11-01T10:58:06.601Z,67.60
2022-11-01T11:00:36.928Z,66.30
2022-11-01T11:03:19.177Z,67.50
2022-11-01T11:05:48.946Z,67.70
2022-11-01T11:08:20.285Z,67.50
2022-11-01T11:10:48.111Z,66.60
2022-11-01T11:13:20.746Z,65.60
2022-11-01T11:16:00.248Z,66.00
2022-11-01T11:18:33.887Z,66.00
2022-11-01T11:21:08.537Z,65.70
2022-11-01T11:23:42.112Z,67.20
2022-11-01T11:26:16.418Z,66.90
2022-11-01T11:28:48.789Z,65.60
2022-11-01T11:31:25.090Z,65.20
2022-11-01T11:33:57.018Z,64.20
2022-11-01T11:36:35.933Z,63.60
2022-11-01T11:39:03.775Z,62.10
2022-11-01T11:41:33.455Z,63.10
2022-11-01T11:44:00.756Z,63.00
2022-11-01T11:46:28.453Z,63.10
2022-11-01T11:49:02.868Z,62.40
2022-11-01T11:51:37.528Z,62.30
2022-11-01T11:54:08.761Z,62.20
2022-11-01T11:56:36.062Z,62.10
2022-11-01T11:59:21.928Z,63.00
2022-11-01T12:01:49.258Z,59.80
2022-11-01T12:04:19.053Z,61.40
2022-11-01T12:06:46.762Z,59.40
2022-11-01T12:09:32.811Z,59.10
2022-11-01T12:12:17.088Z,59.70
2022-11-01T12:14:44.309Z,57.60
2022-11-01T12:17:33.878Z,57.80
2022-11-01T12:20:16.011Z,57.00
2022-11-01T12:23:02.055Z,56.30
2022-11-01T12:25:29.392Z,56.60
2022-11-01T12:27:58.794Z,58.20
2022-11-01T12:30:29.818Z,57.00
2022-11-01T12:32:59.321Z,57.20
2022-11-01T12:35:34.356Z,56.90
2022-11-01T12:38:33.142Z,56.10
2022-11-01T12:41:24.001Z,56.20
2022-11-01T12:44:15.256Z,58.20
2022-11-01T12:46:51.360Z,58.70
2022-11-01T12:49:32.073Z,58.00
2022-11-01T12:52:27.113Z,58.00
2022-11-01T12:55:06.150Z,57.50
2022-11-01T12:57:34.714Z,57.30
2022-11-01T13:00:02.004Z,57.20
2022-11-01T13:02:56.480Z,58.30
2022-11-01T13:05:46.799Z,58.40
2022-11-01T13:08:49.460Z,59.50
2022-11-01T13:11:35.194Z,61.80
2022-11-01T13:14:29.588Z,62.40
2022-11-01T13:17:22.096Z,65.70
2022-11-01T13:20:39.539Z,66.30
2022-11-01T13:23:25.366Z,68.80
2022-11-01T13:26:23.179Z,70.60
2022-11-01T13:28:56.833Z,71.60
2022-11-01T13:31:37.788Z,71.60
2022-11-01T13:34:21.440Z,73.40
2022-11-01T13:36:56.776Z,74.60
2022-11-01T13:39:46.279Z,74.60
2022-11-01T13:42:16.648Z,76.40
2022-11-01T13:44:52.703Z,76.70
2022-11-01T13:47:59.877Z,77.00
2022-11-01T13:50:39.605Z,75.50
2022-11-01T13:53:32.127Z,75.50
2022-11-01T13:56:10.526Z,75.00
2022-11-01T13:58:37.683Z,75.70
2022-11-01T14:01:27.258Z,74.90
2022-11-01T14:04:16.379Z,76.50
2022-11-01T14:06:51.393Z,78.30
2022-11-01T14:09:29.528Z,79.20
2022-11-01T14:12:05.879Z,80.20
2022-11-01T14:14:32.962Z,81.50
2022-11-01T14:17:18.620Z,81.60
2022-11-01T14:19:56.720Z,82.80
2022-11-01T14:22:27.252Z,83.50
2022-11-01T14:24:56.717Z,83.80
2022-11-01T14:27:36.527Z,84.60
2022-11-01T14:30:14.536Z,84.70
2022-11-01T14:32:46.560Z,85.30
2022-11-01T14:35:23.995Z,86.10
2022-11-01T14:37:54.117Z,86.50
2022-11-01T14:40:29.135Z,87.20
2022-11-01T14:43:18.114Z,87.80
2022-11-01T14:45:48.239Z,88.50
2022-11-01T14:48:21.490Z,89.00
2022-11-01T14:51:04.773Z,89.70
2022-11-01T14:53:34.731Z,90.70
2022-11-01T14:56:14.204Z,90.30
2022-11-01T14:58:41.757Z,90.60
2022-11-01T15:01:14.675Z,91.00
2022-11-01T15:03:46.271Z,91.30
2022-11-01T15:06:28.452Z,91.60
2022-11-01T15:08:59.982Z,92.00
2022-11-01T15:11:31.071Z,92.40
2022-11-01T15:14:00.973Z,93.10
2022-11-01T15:16:30.004Z,93.10
2022-11-01T15:19:04.984Z,93.60
2022-11-01T15:21:34.319Z,93.90
2022-11-01T15:24:05.764Z,94.20
2022-11-01T15:26:33.618Z,94.70
2022-11-01T15:29:04.070Z,95.20
2022-11-01T15:31:34.199Z,95.50
2022-11-01T15:34:04.684Z,96.40
2022-11-01T15:36:39.235Z,96.90
2022-11-01T15:39:28.857Z,97.40
2022-11-01T15:41:57.448Z,97.70
2022-11-01T15:44:27.103Z,98.40
2022-11-01T15:46:59.638Z,98.90
2022-11-01T15:49:45.098Z,99.70
2022-11-01T15:52:21.829Z,99.90
2022-11-01T15:54:55.218Z,99.90
2022-11-01T15:57:26.859Z,99.90
2022-11-01T15:59:56.872Z,99.90
2022-11-01T16:02:31.395Z,99.90
2022-11-01T16:04:59.526Z,99.90
2022-11-01T16:07:30.282Z,99.90
2022-11-01T16:10:00.125Z,99.90
2022-11-01T16:12:31.931Z,99.90
2022-11-01T16:15:17.655Z,99.90
2022-11-01T16:17:44.964Z,99.90
2022-11-01T16:20:32.508Z,99.90
2022-11-01T16:23:07.396Z,99.90
2022-11-01T16:25:39.192Z,99.90
2022-11-01T16:28:40.054Z,99.90
2022-11-01T16:31:22.868Z,99.90
2022-11-01T16:33:50.487Z,99.90
2022-11-01T16:36:20.586Z,99.90
2022-11-01T16:38:50.926Z,99.90
2022-11-01T16:41:22.428Z,99.90
2022-11-01T16:43:58.206Z,99.90
2022-11-01T16:46:27.393Z,99.90
2022-11-01T16:48:56.279Z,99.90
2022-11-01T16:51:28.165Z,99.90
2022-11-01T16:53:57.924Z,99.90
2022-11-01T16:56:37.044Z,99.90
2022-11-01T16:59:28.970Z,99.90
2022-11-01T17:01:58.195Z,99.90
2022-11-01T17:04:28.456Z,99.90
2022-11-01T17:06:58.168Z,99.90
2022-11-01T17:09:30.476Z,99.90
2022-11-01T17:11:57.627Z,99.90
2022-11-01T17:14:26.117Z,99.90
2022-11-01T17:16:53.529Z,99.90
2022-11-01T17:19:29.731Z,99.90
2022-11-01T17:22:06.944Z,99.90
2022-11-01T17:24:34.556Z,99.90
2022-11-01T17:27:05.151Z,99.90
2022-11-01T17:29:33.019Z,99.90
2022-11-01T17:32:00.987Z,99.90
2022-11-01T17:34:29.421Z,99.90
2022-11-01T17:36:59.926Z,99.90
2022-11-01T17:39:28.652Z,99.90
2022-11-01T17:41:56.809Z,99.90
2022-11-01T17:44:23.987Z,99.90
2022-11-01T17:46:51.785Z,99.90
2022-11-01T17:49:23.553Z,99.90
2022-11-01T17:51:54.745Z,99.90
2022-11-01T17:54:23.424Z,99.90
2022-11-01T17:56:51.161Z,99.90
2022-11-01T17:59:19.341Z,99.90
2022-11-01T18:01:47.082Z,99.90
2022-11-01T18:04:15.624Z,99.90
2022-11-01T18:06:43.932Z,99.90
2022-11-01T18:09:22.686Z,99.90
2022-11-01T18:12:16.345Z,99.90
2022-11-01T18:14:46.759Z,99.90
2022-11-01T18:17:55.285Z,99.90
2022-11-01T18:20:23.182Z,99.90
2022-11-01T18:22:55.893Z,99.90
2022-11-01T18:25:50.284Z,99.90
2022-11-01T18:28:23.902Z,99.90
2022-11-01T18:30:59.135Z,99.90
2022-11-01T18:33:58.417Z,99.90
2022-11-01T18:37:02.690Z,99.90
2022-11-01T18:39:43.425Z,99.90
2022-11-01T18:42:11.210Z,99.90
2022-11-01T18:44:38.777Z,99.90
2022-11-01T18:47:32.293Z,99.90
2022-11-01T18:50:04.049Z,99.90
2022-11-01T18:52:33.144Z,99.90
2022-11-01T18:55:00.552Z,99.90
2022-11-01T18:57:28.857Z,99.90
2022-11-01T18:59:56.417Z,99.90
2022-11-01T19:02:28.646Z,99.90
2022-11-01T19:05:19.931Z,99.90
2022-11-01T19:08:10.149Z,99.90
2022-11-01T19:10:41.220Z,99.90
2022-11-01T19:13:28.863Z,99.90
2022-11-01T19:15:57.901Z,99.90
2022-11-01T19:18:25.463Z,99.90
2022-11-01T19:20:56.584Z,99.90
2022-11-01T19:23:38.614Z,99.90
2022-11-01T19:26:36.569Z,99.90
2022-11-01T19:29:15.177Z,99.90
2022-11-01T19:31:44.996Z,99.90
2022-11-01T19:34:20.113Z,99.90
2022-11-01T19:36:48.617Z,99.90
2022-11-01T19:39:42.534Z,99.90
2022-11-01T19:42:26.221Z,99.90
2022-11-01T19:44:58.054Z,99.90
2022-11-01T19:47:35.372Z,99.90
2022-11-01T19:50:24.083Z,99.90
2022-11-01T19:52:53.086Z,99.90
2022-11-01T19:55:41.365Z,99.90
2022-11-01T19:58:35.826Z,99.90
2022-11-01T20:01:09.773Z,99.90
2022-11-01T20:03:42.838Z,99.90
2022-11-01T20:06:19.792Z,99.90
2022-11-01T20:08:50.262Z,99.90
2022-11-01T20:11:17.620Z,99.90
2022-11-01T20:13:45.128Z,99.90
2022-11-01T20:16:13.741Z,99.90
2022-11-01T20:18:41.281Z,99.90
2022-11-01T20:21:08.653Z,99.90
2022-11-01T20:23:36.563Z,99.90
2022-11-01T20:26:05.047Z,99.90
2022-11-01T20:28:58.029Z,99.90
2022-11-01T20:31:26.323Z,99.90
2022-11-01T20:33:54.287Z,99.90
2022-11-01T20:36:22.200Z,99.90
2022-11-01T20:38:49.859Z,99.90
2022-11-01T20:41:17.136Z,99.90
2022-11-01T20:43:44.801Z,99.90
2022-11-01T20:46:12.673Z,99.90
2022-11-01T20:48:40.119Z,99.90
2022-11-01T20:51:07.431Z,99.90
2022-11-01T20:53:34.680Z,99.90
2022-11-01T20:56:02.461Z,99.90
2022-11-01T20:58:29.753Z,99.90
2022-11-01T21:00:57.731Z,99.90
2022-11-01T21:03:27.503Z,99.90
2022-11-01T21:05:54.729Z,99.90
2022-11-01T21:08:24.535Z,99.90
2022-11-01T21:10:54.917Z,99.90
2022-11-01T21:13:36.881Z,99.90
2022-11-01T21:16:13.911Z,99.90
2022-11-01T21:18:45.939Z,99.90
2022-11-01T21:21:16.275Z,99.90
2022-11-01T21:23:44.573Z,99.90
2022-11-01T21:26:28.092Z,99.90
2022-11-01T21:29:02.556Z,99.90
2022-11-01T21:31:32.973Z,99.90
2022-11-01T21:34:24.440Z,99.90
2022-11-01T21:36:52.126Z,99.90
2022-11-01T21:39:26.834Z,99.90
2022-11-01T21:42:04.253Z,99.90
2022-11-01T21:44:43.333Z,99.90
2022-11-01T21:47:21.261Z,99.90
2022-11-01T21:49:48.787Z,99.90
2022-11-01T21:52:16.652Z,99.90
2022-11-01T21:54:44.151Z,99.90
2022-11-01T21:57:12.378Z,99.90
2022-11-01T21:59:40.551Z,99.90
2022-11-01T22:02:10.975Z,99.90
2022-11-01T22:04:38.280Z,99.90
2022-11-01T22:07:07.746Z,99.90
2022-11-01T22:09:35.354Z,99.90
2022-11-01T22:12:03.353Z,99.90
2022-11-01T22:14:30.545Z,99.90
2022-11-01T22:16:57.987Z,99.90
2022-11-01T22:19:25.147Z,99.90
2022-11-01T22:21:52.377Z,99.90
2022-11-01T22:24:19.531Z,99.90
2022-11-01T22:26:46.669Z,99.90
2022-11-01T22:29:14.048Z,99.90
2022-11-01T22:31:41.193Z,99.90
2022-11-01T22:34:08.367Z,99.90
2022-11-01T22:36:36.282Z,99.90
2022-11-01T22:39:18.665Z,99.90
2022-11-01T22:41:46.265Z,99.90
2022-11-01T22:44:16.388Z,99.90
2022-11-01T22:46:56.971Z,99.90
2022-11-01T22:49:31.958Z,99.90
2022-11-01T22:52:04.363Z,99.90
2022-11-01T22:54:40.631Z,99.90
2022-11-01T22:57:24.109Z,99.90
2022-11-01T23:00:00.227Z,99.90
2022-11-01T23:02:41.150Z,99.90
2022-11-01T23:05:08.445Z,99.90
2022-11-01T23:07:39.865Z,99.90
2022-11-01T23:10:20.306Z,99.90
2022-11-01T23:13:08.205Z,99.90
2022-11-01T23:15:36.528Z,99.90
2022-11-01T23:18:15.330Z,99.90
2022-11-01T23:20:43.597Z,99.90
2022-11-01T23:23:16.660Z,99.90
2022-11-01T23:25:44.093Z,99.90
2022-11-01T23:28:13.121Z,99.90
2022-11-01T23:30:45.947Z,99.90
2022-11-01T23:33:15.207Z,99.90
2022-11-01T23:35:51.148Z,99.90
2022-11-01T23:38:22.708Z,99.90
2022-11-01T23:40:53.322Z,99.90
2022-11-01T23:43:30.563Z,99.90
2022-11-01T23:45:57.803Z,99.90
2022-11-01T23:48:25.154Z,99.90
2022-11-01T23:50:53.153Z,99.90
2022-11-01T23:53:26.527Z,99.90
2022-11-01T23:55:54.895Z,99.90
